Overton RPC :: 100-A

liberation: 2021-08-28  07:00     latitude: 34.861244     longitude: -85.505535 75 birds
# LOFT PRING MILES ARRIVAL SPEED ToWin
1 VALHALLA LOFTS AU21-ARPU-9000 107.559 2021-08-28 09:53:53.024 1088.684 00:00:00
2 VALHALLA LOFTS IF21-VALH-0175 107.559 2021-08-28 09:53:57.613 1088.206 00:00:05
3 VALHALLA LOFTS IF21-E-1498 107.559 2021-08-28 09:54:06.752 1087.254 00:00:14
4 VALHALLA LOFTS IF21-VALH-0116 107.559 2021-08-28 09:54:08.218 1087.101 00:00:15
5 VALHALLA LOFTS IF21-VALH-0176 107.559 2021-08-28 09:54:12.424 1086.664 00:00:19
6 VALHALLA LOFTS IF21-E-1444 107.559 2021-08-28 09:54:25.173 1085.340 00:00:32
7 VALHALLA LOFTS IF21-VALH-0112 107.559 2021-08-28 09:55:47.220 1076.897 00:01:54
8 HONEY FARM LOFT IF21-FOYS-5481 106.823 2021-08-28 09:56:52.553 1062.945 00:04:11
9 VALHALLA LOFTS IF21-E-1448 107.559 2021-08-28 10:00:45.089 1047.319 00:06:52
10 VALHALLA LOFTS IF21-VALH-0107 107.559 2021-08-28 10:02:29.886 1037.296 00:08:37
11 VALHALLA LOFTS IF21-VALH-0182 107.559 2021-08-28 10:55:11.204 804.911 01:01:18
12 VALHALLA LOFTS IF21-E-1499 107.559 2021-08-28 11:07:43.022 764.196 01:13:50
13 VALHALLA LOFTS IF21-E-1495 107.559 2021-08-28 11:07:43.238 764.185 01:13:50
14 VALHALLA LOFTS AU21-BREW-2154 107.559 2021-08-28 11:08:53.845 760.572 01:15:01
15 VALHALLA LOFTS IF21-VALH-0186 107.559 2021-08-28 11:10:05.364 756.947 01:16:12
16 VALHALLA LOFTS IF21-VALH-0128 107.559 2021-08-28 11:14:14.867 744.567 01:20:22
17 VALHALLA LOFTS IF21-VALH-0153 107.559 2021-08-28 11:15:30.584 740.889 01:21:38
18 VALHALLA LOFTS IF21-E-1500 107.559 2021-08-28 11:15:31.049 740.867 01:21:38
19 VALHALLA LOFTS IF21-E-1411 107.559 2021-08-28 11:15:33.662 740.741 01:21:41
20 PHILBETTER LOFT IF21-E-1560 104.389 2021-08-28 11:15:13.977 719.834 01:26:28
21 VALHALLA LOFTS AU21-ARPU-8991 107.559 2021-08-28 11:24:18.058 716.246 01:30:25
22 VALHALLA LOFTS AU21-ARPU-8997 107.559 2021-08-28 11:53:26.548 645.116 01:59:34
23 HONEY FARM LOFT AU21-NASH-9591 106.823 2021-08-28 11:54:00.559 639.467 02:01:19
24 PHILBETTER LOFT IF21-E-1429 104.389 2021-08-28 11:54:38.547 623.554 02:05:53
25 PHILBETTER LOFT IF21-E-1430 104.389 2021-08-28 11:54:41.829 623.438 02:05:56
26 BIG MOMMA'S LOFT IF21-E-1342 103.563 2021-08-28 12:03:35.317 600.388 02:16:10
27 BIG MOMMA'S LOFT IF21-E-1344 103.563 2021-08-28 12:05:36.162 596.431 02:18:11
28 BIG MOMMA'S LOFT IF21-E-1396 103.563 2021-08-28 12:06:25.163 594.842 02:19:00
29 PHILBETTER LOFT IF21-E-1562 104.389 2021-08-28 12:40:04.885 540.240 02:51:19
30 PHILBETTER LOFT IF21-E-1558 104.389 2021-08-28 12:40:11.790 540.057 02:51:26
31 PHILBETTER LOFT IF21-E-1566 104.389 2021-08-28 12:40:14.247 539.992 02:51:29
32 VALHALLA LOFTS IF21-E-1414 107.559 2021-08-28 13:37:17.808 476.481 03:43:25
33 VALHALLA LOFTS AU21-POP-0537 107.559 2021-08-28 13:54:16.660 456.951 04:00:24
34 LET IT GO LOFT IF21-E-1456 109.108 2021-08-28 14:19:07.800 437.296 04:22:45
35 LET IT GO LOFT IF21-E-1405 109.108 2021-08-28 15:44:33.935 366.074 05:48:11
36 BIG MOMMA'S LOFT IF21-E-1384 103.563 2021-08-28 15:57:49.227 338.907 06:10:24
37 BIG MOMMA'S LOFT IF21-E-1354 103.563 2021-08-28 16:04:49.342 334.551 06:17:24
38 HONEY FARM LOFT IF21-FOYS-5470 106.823 2021-08-28 16:30:39.095 329.464 06:37:57
39 VALHALLA LOFTS IF21-VALH-0104 107.559 2021-08-28 16:47:02.950 322.468 06:53:10
40 VALHALLA LOFTS AU21-ARPU-8989 107.559 2021-08-28 16:48:32.328 321.652 06:54:39
41 VALHALLA LOFTS IF21-VALH-0102 107.559 2021-08-28 17:40:16.014 295.665 07:46:23
42 BIG MOMMA'S LOFT IF21-E-1332 103.563 2021-08-28 17:35:34.749 286.779 07:48:09
43 VALHALLA LOFTS IF21-E-1496 107.559 2021-08-28 18:15:04.698 280.419 08:21:12
44 VALHALLA LOFTS IF21-VALH-0108 107.559 2021-08-28 18:18:11.074 279.134 08:24:18
45 VALHALLA LOFTS IF21-VALH-0110 107.559 2021-08-29 07:15:49.552 220.958 11:22:52
46 VALHALLA LOFTS IF21-VALH-0118 107.559 2021-08-29 08:05:59.094 208.738 12:13:01
47 VALHALLA LOFTS IF21-VALH-0105 107.559 2021-08-29 08:44:42.873 200.188 12:51:45
48 VALHALLA LOFTS AU21-POP-0536 107.559 2021-08-29 09:00:41.667 196.862 13:07:44
49 VALHALLA LOFTS IF21-E-1497 107.559 2021-08-29 09:10:48.960 194.811 13:17:51
50 LET IT GO LOFT IF21-ORP-0442 109.108 2021-08-29 12:54:07.972 160.688 16:58:40
51 LET IT GO LOFT IF21-E-1410 109.108 2021-08-29 19:04:47.058 122.648 23:09:19
52 HONEY FARM LOFT IF21-FOYS-5476 106.823 2021-08-30 08:43:18.923 105.440 26:50:24
53 HONEY FARM LOFT IF21-FOYS-5462 106.823 2021-08-30 08:46:11.126 105.270 26:53:17
54 LET IT GO LOFT IF21-ORP-0426 109.108 2021-08-30 14:34:04.671 89.992 32:37:28
BIG MOMMA'S LOFT IF21-E-1304 0 0000-00-00 00:00:00.000 0.000 00:00:00
BIG MOMMA'S LOFT IF21-E-1341 0 0000-00-00 00:00:00.000 0.000 00:00:00
BIG MOMMA'S LOFT IF21-E-1352 0 0000-00-00 00:00:00.000 0.000 00:00:00
BIG MOMMA'S LOFT IF21-E-1353 0 0000-00-00 00:00:00.000 0.000 00:00:00
BIG MOMMA'S LOFT IF21-E-1397 0 0000-00-00 00:00:00.000 0.000 00:00:00
HONEY FARM LOFT AU21-NASH-9584 0 0000-00-00 00:00:00.000 0.000 00:00:00
HONEY FARM LOFT IF21-FOYS-5461 0 0000-00-00 00:00:00.000 0.000 00:00:00
HONEY FARM LOFT IF21-FOYS-5463 0 0000-00-00 00:00:00.000 0.000 00:00:00
HONEY FARM LOFT IF21-FOYS-5464 0 0000-00-00 00:00:00.000 0.000 00:00:00
HONEY FARM LOFT IF21-FOYS-5468 0 0000-00-00 00:00:00.000 0.000 00:00:00
HONEY FARM LOFT IF21-ORP-0412 0 0000-00-00 00:00:00.000 0.000 00:00:00
LET IT GO LOFT IF21-E-1409 0 0000-00-00 00:00:00.000 0.000 00:00:00
LET IT GO LOFT IF21-E-1459 0 0000-00-00 00:00:00.000 0.000 00:00:00
LET IT GO LOFT IF21-ORP-0418 0 0000-00-00 00:00:00.000 0.000 00:00:00
LET IT GO LOFT IF21-ORP-0425 0 0000-00-00 00:00:00.000 0.000 00:00:00
LET IT GO LOFT IF21-ORP-0453 0 0000-00-00 00:00:00.000 0.000 00:00:00
PHILBETTER LOFT IF21-E-1424 0 0000-00-00 00:00:00.000 0.000 00:00:00
PHILBETTER LOFT IF21-E-1555 0 0000-00-00 00:00:00.000 0.000 00:00:00
PHILBETTER LOFT IF21-E-1565 0 0000-00-00 00:00:00.000 0.000 00:00:00
PHILBETTER LOFT IF21-E-1571 0 0000-00-00 00:00:00.000 0.000 00:00:00
VALHALLA LOFTS AU21-ARPU-8988 0 0000-00-00 00:00:00.000 0.000 00:00:00